Main page
METAR-TAF:

METAR-TAF

Airports :

Uytash Airport

Makhachkala, Russia

latitude: 42-49-01N, longitude: 047-39-08E, elevation: 4 m

Current weather observation

The report was made 43 minutes ago, at 16:00 UTC
Wind 2 kt from variable directions
Temperature 27°C
Humidity 58%
Pressure 1009 hPa
Visibility 10 km or more
Few clouds , Cumulonimbus.

METAR: URML 301600Z VRB01MPS 9999 FEW///CB 27/18 Q1009 R14/01//70 NOSIG RMK QFE756/1009

Time: 19:43 (16:43 UTC)

Forecast

The report was made 2 hours and 43 minutes ago, at 14:00 UTC
Forecast valid from 30 at 15 UTC to 30 at 24 UTC
Wind 6 kt from the East/Southeast with gusts up to 16 kt
Visibility 10 km or more
Scattered clouds at a height of 5000 ft, Cumulonimbus.
Probability 40% :
Temporary
from 30 at 15 UTC to 30 at 18 UTC
thunderstorm, light rain
Becoming
from 30 at 18 UTC to 30 at 20 UTC
Wind 6 kt from the North/Northwest with gusts up to 16 kt

TAF: URML 301400Z 3015/3024 11003G08MPS 9999 SCT050CB PROB40 TEMPO 3015/3018 -TSRA BECMG 3018/3020 34003G08MPS

Weather observations and forecasts of more than 4000 airports (METAR and TAF reports).

The available stations are represented by yellow and red dots on the map.

Hover mouse over dot to see the name of the station.

Then click to see weather observations and forecasts.

To change the map : click on the green buttons with a black cross to zoom in, on the green button with a dash to zoom out, or on the green arrows for adjacent maps.


METAR-TAF: